Etusivu
METAR-TAF:

METAR-TAF

Lentoasemat :

Idaho Falls, Idaho, Yhdysvallat

Leveyspiiri: 43-31-15N, Pituuspiiri: 112-03-58W, korkeus merenpinnasta: 1445 m

Tämänhetkinen sää

Tämä raportti tehtiin 29 minuuttia sitten, kello 22.53 UTC
Tuuli 4 kn koillisesta
Lämpötila 7°C
Kosteus 19%
Ilmanpaine 1029 hPa
Näkyvyys: 16.1 km
Muutamia pilviä 9000 ft:n korkeudessa

METAR: KIDA 112253Z COR 04004KT 10SM FEW090 07/M15 A3040 RMK AO2 SLP318 T00671150

Aika: 16:22 (23:22 UTC)

Sääennuste

Tämä raportti tehtiin 5 tuntia ja 57 minuuttia sitten, kello 17.25 UTC
Ennuste voimassa 11. päivästä klo 18 UTC - 12. päivään klo 18 UTC
Tuuli 7 kn pohjoisesta/koillisesta
Näkyvyys: 10 km
Muutamia pilviä 20000 ft:n korkeudessa
From 12. päivästä klo 0200 UTC
Tuuli 5 kn eri suunnista
Näkyvyys: 10 km
Hajanaisia pilviä 20000 ft:n korkeudessa

TAF: KIDA 111725Z 1118/1218 02007KT P6SM FEW200 FM120200 VRB05KT P6SM SCT200

Säähavainnot ja -ennusteet yli 4000 lentoasemalta (METAR- ja TAF-raportit).

Käytössä olevat sääasemat on merkitty karttaan keltaisilla ja punaisilla pisteillä.

Aseta hiiri pisteen päälle nähdäksesi sääaseman nimen.

Klikkaa sitten nähdäksesi säähavainnot ja -ennusteet.

Kartan vaihtaminen: klikkaa mustalla rastilla varustettuja vihreitä pisteitä, niin voit zoomata sisään; viivalla varustettua vihreää pistettä, niin voit zoomata ulos tai vihreitä nuolia, niin pääset viereisille kartoille.


METAR-TAF: